sensor_id;sensor_type;location;lat;lon;timestamp;pressure;altitude;pressure_sealevel;temperature;humidity
82160;BME280;71734;50.876;7.372;2024-03-08T00:00:58;99118.06;;;3.95;68.60
82160;BME280;71734;50.876;7.372;2024-03-08T00:03:25;99107.44;;;4.07;70.13
82160;BME280;71734;50.876;7.372;2024-03-08T00:05:53;99114.59;;;3.90;69.85
82160;BME280;71734;50.876;7.372;2024-03-08T00:08:20;99104.09;;;3.90;70.46
82160;BME280;71734;50.876;7.372;2024-03-08T00:10:46;99099.00;;;3.74;69.21
82160;BME280;71734;50.876;7.372;2024-03-08T00:13:14;99098.97;;;3.78;71.16
82160;BME280;71734;50.876;7.372;2024-03-08T00:15:41;99097.44;;;3.52;71.51
82160;BME280;71734;50.876;7.372;2024-03-08T00:18:07;99093.78;;;3.71;69.19
82160;BME280;71734;50.876;7.372;2024-03-08T00:20:34;99091.28;;;3.58;70.97
82160;BME280;71734;50.876;7.372;2024-03-08T00:23:02;99081.56;;;3.70;70.53
82160;BME280;71734;50.876;7.372;2024-03-08T00:25:29;99073.94;;;3.40;70.03
82160;BME280;71734;50.876;7.372;2024-03-08T00:27:56;99085.25;;;3.44;71.82
82160;BME280;71734;50.876;7.372;2024-03-08T00:30:22;99078.25;;;3.49;71.55
82160;BME280;71734;50.876;7.372;2024-03-08T00:32:50;99080.81;;;3.58;70.54
82160;BME280;71734;50.876;7.372;2024-03-08T00:35:16;99075.63;;;3.47;72.43
82160;BME280;71734;50.876;7.372;2024-03-08T00:37:43;99080.00;;;3.50;72.51
82160;BME280;71734;50.876;7.372;2024-03-08T00:40:13;99083.59;;;3.38;70.82
82160;BME280;71734;50.876;7.372;2024-03-08T00:42:40;99076.56;;;3.40;70.98
82160;BME280;71734;50.876;7.372;2024-03-08T00:45:09;99069.59;;;3.42;71.63
82160;BME280;71734;50.876;7.372;2024-03-08T00:47:36;99082.75;;;3.33;71.79
82160;BME280;71734;50.876;7.372;2024-03-08T00:50:03;99082.69;;;3.41;73.25
82160;BME280;71734;50.876;7.372;2024-03-08T00:52:30;99073.09;;;3.38;72.28
82160;BME280;71734;50.876;7.372;2024-03-08T00:54:56;99060.88;;;3.37;72.93
82160;BME280;71734;50.876;7.372;2024-03-08T00:57:24;99068.56;;;3.57;72.20
82160;BME280;71734;50.876;7.372;2024-03-08T00:59:51;99068.66;;;3.48;71.82
82160;BME280;71734;50.876;7.372;2024-03-08T01:02:18;99066.16;;;3.31;71.96
82160;BME280;71734;50.876;7.372;2024-03-08T01:04:44;99056.59;;;3.28;71.46
82160;BME280;71734;50.876;7.372;2024-03-08T01:07:12;99052.25;;;3.26;72.26
82160;BME280;71734;50.876;7.372;2024-03-08T01:09:39;99056.63;;;3.25;72.92
82160;BME280;71734;50.876;7.372;2024-03-08T01:12:05;99044.25;;;3.40;71.55
82160;BME280;71734;50.876;7.372;2024-03-08T01:14:33;99039.94;;;3.37;73.40
82160;BME280;71734;50.876;7.372;2024-03-08T01:17:00;99045.22;;;3.28;72.04
82160;BME280;71734;50.876;7.372;2024-03-08T01:19:27;99045.09;;;3.43;72.24
82160;BME280;71734;50.876;7.372;2024-03-08T01:21:53;99048.66;;;3.36;71.96
82160;BME280;71734;50.876;7.372;2024-03-08T01:24:22;99033.94;;;3.18;71.92
82160;BME280;71734;50.876;7.372;2024-03-08T01:26:48;99026.16;;;3.11;73.82
82160;BME280;71734;50.876;7.372;2024-03-08T01:29:15;99022.88;;;2.85;72.62
82160;BME280;71734;50.876;7.372;2024-03-08T01:31:43;99019.28;;;2.95;74.39
82160;BME280;71734;50.876;7.372;2024-03-08T01:34:09;99022.63;;;3.15;73.49
82160;BME280;71734;50.876;7.372;2024-03-08T01:36:36;99022.53;;;3.27;73.50
82160;BME280;71734;50.876;7.372;2024-03-08T01:39:03;99009.34;;;3.41;74.13
82160;BME280;71734;50.876;7.372;2024-03-08T01:41:33;99015.53;;;3.32;71.33
82160;BME280;71734;50.876;7.372;2024-03-08T01:44:00;99015.72;;;3.08;72.93
82160;BME280;71734;50.876;7.372;2024-03-08T01:46:28;98994.03;;;2.92;73.14
82160;BME280;71734;50.876;7.372;2024-03-08T01:48:56;98993.09;;;2.98;73.29
82160;BME280;71734;50.876;7.372;2024-03-08T01:51:23;98998.31;;;3.01;72.44
82160;BME280;71734;50.876;7.372;2024-03-08T01:53:50;98996.53;;;3.09;74.02
82160;BME280;71734;50.876;7.372;2024-03-08T01:56:17;98985.25;;;2.95;73.53
82160;BME280;71734;50.876;7.372;2024-03-08T01:58:44;98993.91;;;3.07;73.95
82160;BME280;71734;50.876;7.372;2024-03-08T02:04:27;98977.44;;;2.92;73.48
82160;BME280;71734;50.876;7.372;2024-03-08T02:06:55;98976.63;;;2.84;72.77
82160;BME280;71734;50.876;7.372;2024-03-08T02:09:23;98973.13;;;2.86;73.84
82160;BME280;71734;50.876;7.372;2024-03-08T02:11:50;98977.47;;;2.87;74.23
82160;BME280;71734;50.876;7.372;2024-03-08T02:14:16;98978.31;;;2.91;74.47
82160;BME280;71734;50.876;7.372;2024-03-08T02:16:44;98979.19;;;2.90;73.79
82160;BME280;71734;50.876;7.372;2024-03-08T02:19:10;98974.88;;;2.84;73.20
82160;BME280;71734;50.876;7.372;2024-03-08T02:21:38;98968.88;;;2.71;73.93
82160;BME280;71734;50.876;7.372;2024-03-08T02:24:06;98978.41;;;2.78;74.01
82160;BME280;71734;50.876;7.372;2024-03-08T02:26:32;98972.19;;;2.95;72.14
82160;BME280;71734;50.876;7.372;2024-03-08T02:28:59;98967.84;;;2.91;72.90
82160;BME280;71734;50.876;7.372;2024-03-08T02:31:25;98960.97;;;2.80;73.70
82160;BME280;71734;50.876;7.372;2024-03-08T02:33:52;98958.31;;;2.82;74.73
82160;BME280;71734;50.876;7.372;2024-03-08T02:36:19;98954.81;;;2.85;72.50
82160;BME280;71734;50.876;7.372;2024-03-08T02:38:48;98956.50;;;2.92;73.68
82160;BME280;71734;50.876;7.372;2024-03-08T02:41:14;98947.91;;;2.74;73.68
82160;BME280;71734;50.876;7.372;2024-03-08T02:43:41;98960.13;;;2.75;73.18
82160;BME280;71734;50.876;7.372;2024-03-08T02:46:07;98946.16;;;2.73;74.35
82160;BME280;71734;50.876;7.372;2024-03-08T02:48:35;98966.09;;;2.91;72.75
82160;BME280;71734;50.876;7.372;2024-03-08T02:51:02;98961.81;;;2.83;72.82
82160;BME280;71734;50.876;7.372;2024-03-08T02:53:28;98947.78;;;2.93;72.64
82160;BME280;71734;50.876;7.372;2024-03-08T02:55:56;98942.66;;;2.79;74.09
82160;BME280;71734;50.876;7.372;2024-03-08T02:58:23;98946.16;;;2.73;72.68
82160;BME280;71734;50.876;7.372;2024-03-08T03:00:49;98940.03;;;2.77;74.66
82160;BME280;71734;50.876;7.372;2024-03-08T03:03:16;98942.75;;;2.68;72.93
82160;BME280;71734;50.876;7.372;2024-03-08T03:05:42;98941.75;;;2.83;72.48
82160;BME280;71734;50.876;7.372;2024-03-08T03:08:09;98933.13;;;2.70;73.64
82160;BME280;71734;50.876;7.372;2024-03-08T03:10:37;98938.38;;;2.69;75.13
82160;BME280;71734;50.876;7.372;2024-03-08T03:13:05;98930.56;;;2.61;73.83
82160;BME280;71734;50.876;7.372;2024-03-08T03:15:32;98939.22;;;2.69;73.82
82160;BME280;71734;50.876;7.372;2024-03-08T03:17:59;98918.50;;;2.39;74.55
82160;BME280;71734;50.876;7.372;2024-03-08T03:20:25;98939.13;;;2.85;74.17
82160;BME280;71734;50.876;7.372;2024-03-08T03:22:57;98928.84;;;2.57;73.14
82160;BME280;71734;50.876;7.372;2024-03-08T03:25:26;98939.19;;;2.75;73.91
82160;BME280;71734;50.876;7.372;2024-03-08T03:27:58;98928.66;;;2.81;73.84
82160;BME280;71734;50.876;7.372;2024-03-08T03:30:26;98926.91;;;2.84;73.55
82160;BME280;71734;50.876;7.372;2024-03-08T03:32:56;98926.94;;;2.79;73.22
82160;BME280;71734;50.876;7.372;2024-03-08T03:35:25;98931.28;;;2.81;73.89
82160;BME280;71734;50.876;7.372;2024-03-08T03:37:52;98919.25;;;2.61;73.86
82160;BME280;71734;50.876;7.372;2024-03-08T03:40:31;98920.97;;;2.63;73.57
82160;BME280;71734;50.876;7.372;2024-03-08T03:42:57;98921.81;;;2.68;74.46
82160;BME280;71734;50.876;7.372;2024-03-08T03:45:26;98922.69;;;2.69;74.12
82160;BME280;71734;50.876;7.372;2024-03-08T03:47:52;98930.44;;;2.79;74.21
82160;BME280;71734;50.876;7.372;2024-03-08T03:50:19;98911.94;;;2.98;73.10
82160;BME280;71734;50.876;7.372;2024-03-08T03:52:46;98914.66;;;2.86;73.42
82160;BME280;71734;50.876;7.372;2024-03-08T03:55:13;98913.94;;;2.73;73.60
82160;BME280;71734;50.876;7.372;2024-03-08T03:57:39;98917.47;;;2.63;73.43
82160;BME280;71734;50.876;7.372;2024-03-08T04:00:07;98911.34;;;2.67;74.53
82160;BME280;71734;50.876;7.372;2024-03-08T04:02:40;98908.69;;;2.73;74.47
82160;BME280;71734;50.876;7.372;2024-03-08T04:05:08;98914.69;;;2.83;74.57
82160;BME280;71734;50.876;7.372;2024-03-08T04:07:35;98906.91;;;2.73;73.05
82160;BME280;71734;50.876;7.372;2024-03-08T04:10:01;98907.00;;;2.61;74.13
82160;BME280;71734;50.876;7.372;2024-03-08T04:12:30;98906.19;;;2.53;73.67
82160;BME280;71734;50.876;7.372;2024-03-08T04:14:57;98905.34;;;2.51;74.84
82160;BME280;71734;50.876;7.372;2024-03-08T04:17:24;98918.38;;;2.57;75.54
82160;BME280;71734;50.876;7.372;2024-03-08T04:19:52;98904.41;;;2.64;73.73
82160;BME280;71734;50.876;7.372;2024-03-08T04:22:19;98900.22;;;2.36;75.09
82160;BME280;71734;50.876;7.372;2024-03-08T04:24:46;98899.34;;;2.34;75.19
82160;BME280;71734;50.876;7.372;2024-03-08T04:27:13;98902.84;;;2.36;75.63
82160;BME280;71734;50.876;7.372;2024-03-08T04:29:40;98894.13;;;2.34;75.89
82160;BME280;71734;50.876;7.372;2024-03-08T04:32:08;98901.13;;;2.32;75.92
82160;BME280;71734;50.876;7.372;2024-03-08T04:34:35;98895.03;;;2.30;75.06
82160;BME280;71734;50.876;7.372;2024-03-08T04:37:03;98889.72;;;2.41;75.78
82160;BME280;71734;50.876;7.372;2024-03-08T04:39:30;98887.19;;;2.28;75.83
82160;BME280;71734;50.876;7.372;2024-03-08T04:41:58;98887.16;;;2.33;76.01
82160;BME280;71734;50.876;7.372;2024-03-08T04:44:25;98878.47;;;2.31;76.10
82160;BME280;71734;50.876;7.372;2024-03-08T04:46:52;98882.00;;;2.21;75.36
82160;BME280;71734;50.876;7.372;2024-03-08T04:49:19;98883.66;;;2.34;75.80
82160;BME280;71734;50.876;7.372;2024-03-08T04:51:47;98875.03;;;2.23;74.84
82160;BME280;71734;50.876;7.372;2024-03-08T04:54:15;98882.84;;;2.24;76.01
82160;BME280;71734;50.876;7.372;2024-03-08T04:56:41;98882.81;;;2.29;75.05
82160;BME280;71734;50.876;7.372;2024-03-08T04:59:08;98880.28;;;2.23;75.83
82160;BME280;71734;50.876;7.372;2024-03-08T05:01:34;98877.53;;;2.44;73.81
82160;BME280;71734;50.876;7.372;2024-03-08T05:04:03;98872.34;;;2.33;75.78
82160;BME280;71734;50.876;7.372;2024-03-08T05:06:29;98868.88;;;2.31;74.22
82160;BME280;71734;50.876;7.372;2024-03-08T05:08:56;98861.91;;;2.30;76.16
82160;BME280;71734;50.876;7.372;2024-03-08T05:11:24;98866.38;;;2.15;76.10
82160;BME280;71734;50.876;7.372;2024-03-08T05:13:53;98861.97;;;2.21;76.01
82160;BME280;71734;50.876;7.372;2024-03-08T05:16:21;98855.94;;;2.15;76.82
82160;BME280;71734;50.876;7.372;2024-03-08T05:18:49;98861.09;;;2.21;75.69
82160;BME280;71734;50.876;7.372;2024-03-08T05:21:16;98857.63;;;2.19;75.87
82160;BME280;71734;50.876;7.372;2024-03-08T05:23:45;98849.00;;;2.08;76.69
82160;BME280;71734;50.876;7.372;2024-03-08T05:26:12;98841.97;;;2.19;76.35
82160;BME280;71734;50.876;7.372;2024-03-08T05:28:40;98854.13;;;2.23;76.28
82160;BME280;71734;50.876;7.372;2024-03-08T05:31:07;98848.16;;;2.01;75.85
82160;BME280;71734;50.876;7.372;2024-03-08T05:33:34;98850.72;;;2.09;77.18
82160;BME280;71734;50.876;7.372;2024-03-08T05:36:00;98861.06;;;2.27;76.34
82160;BME280;71734;50.876;7.372;2024-03-08T05:38:27;98843.78;;;2.08;75.74
82160;BME280;71734;50.876;7.372;2024-03-08T05:40:54;98833.34;;;2.02;75.74
82160;BME280;71734;50.876;7.372;2024-03-08T05:43:21;98835.09;;;2.03;75.54
82160;BME280;71734;50.876;7.372;2024-03-08T05:45:49;98833.28;;;2.14;77.00
82160;BME280;71734;50.876;7.372;2024-03-08T05:48:15;98841.09;;;2.20;77.26
82160;BME280;71734;50.876;7.372;2024-03-08T05:50:43;98829.88;;;1.97;77.10
82160;BME280;71734;50.876;7.372;2024-03-08T05:53:10;98826.38;;;2.02;76.88
82160;BME280;71734;50.876;7.372;2024-03-08T05:55:37;98828.13;;;2.02;77.26
82160;BME280;71734;50.876;7.372;2024-03-08T05:58:04;98818.56;;;1.96;76.51
82160;BME280;71734;50.876;7.372;2024-03-08T06:00:33;98829.84;;;2.06;75.94
82160;BME280;71734;50.876;7.372;2024-03-08T06:03:03;98825.38;;;2.23;77.11
82160;BME280;71734;50.876;7.372;2024-03-08T06:05:29;98829.81;;;2.09;76.71
82160;BME280;71734;50.876;7.372;2024-03-08T06:07:57;98833.31;;;2.08;76.86
82160;BME280;71734;50.876;7.372;2024-03-08T06:10:23;98842.88;;;2.10;77.31
82160;BME280;71734;50.876;7.372;2024-03-08T06:12:50;98829.72;;;2.21;77.15
82160;BME280;71734;50.876;7.372;2024-03-08T06:15:16;98827.97;;;2.26;76.42
82160;BME280;71734;50.876;7.372;2024-03-08T06:17:46;98840.19;;;2.24;76.79
82160;BME280;71734;50.876;7.372;2024-03-08T06:20:14;98830.59;;;2.21;76.47
82160;BME280;71734;50.876;7.372;2024-03-08T06:22:41;98837.53;;;2.25;77.05
82160;BME280;71734;50.876;7.372;2024-03-08T06:25:09;98832.31;;;2.27;75.83
82160;BME280;71734;50.876;7.372;2024-03-08T06:27:39;98828.91;;;2.13;76.79
82160;BME280;71734;50.876;7.372;2024-03-08T06:30:06;98831.59;;;2.04;77.26
82160;BME280;71734;50.876;7.372;2024-03-08T06:32:35;98829.00;;;1.98;77.86
82160;BME280;71734;50.876;7.372;2024-03-08T06:35:01;98829.88;;;1.97;77.50
82160;BME280;71734;50.876;7.372;2024-03-08T06:37:57;98829.03;;;1.93;77.68
82160;BME280;71734;50.876;7.372;2024-03-08T06:40:24;98826.31;;;2.14;77.54
82160;BME280;71734;50.876;7.372;2024-03-08T06:42:50;98817.63;;;2.05;77.03
82160;BME280;71734;50.876;7.372;2024-03-08T06:45:17;98824.53;;;2.18;76.21
82160;BME280;71734;50.876;7.372;2024-03-08T06:47:46;98816.50;;;2.41;76.68
82160;BME280;71734;50.876;7.372;2024-03-08T06:50:13;98822.47;;;2.58;76.54
82160;BME280;71734;50.876;7.372;2024-03-08T06:52:42;98826.97;;;2.41;75.61
82160;BME280;71734;50.876;7.372;2024-03-08T06:55:11;98819.03;;;2.53;76.17
82160;BME280;71734;50.876;7.372;2024-03-08T06:57:38;98817.34;;;2.47;76.60
82160;BME280;71734;50.876;7.372;2024-03-08T07:00:06;98812.84;;;2.61;75.61
82160;BME280;71734;50.876;7.372;2024-03-08T07:02:34;98813.66;;;2.69;75.85
82160;BME280;71734;50.876;7.372;2024-03-08T07:05:06;98825.81;;;2.73;74.26
82160;BME280;71734;50.876;7.372;2024-03-08T07:07:39;98818.88;;;2.72;75.02
82160;BME280;71734;50.876;7.372;2024-03-08T07:10:07;98816.22;;;2.74;75.45
82160;BME280;71734;50.876;7.372;2024-03-08T07:12:37;98820.50;;;2.83;74.50
82160;BME280;71734;50.876;7.372;2024-03-08T07:15:05;98814.31;;;2.93;74.70
82160;BME280;71734;50.876;7.372;2024-03-08T07:17:32;98813.41;;;2.95;73.95
82160;BME280;71734;50.876;7.372;2024-03-08T07:20:00;98811.63;;;2.99;74.33
82160;BME280;71734;50.876;7.372;2024-03-08T07:22:32;98810.75;;;2.98;74.48
82160;BME280;71734;50.876;7.372;2024-03-08T07:24:59;98806.38;;;2.99;74.93
82160;BME280;71734;50.876;7.372;2024-03-08T07:27:46;98804.38;;;3.25;73.12
82160;BME280;71734;50.876;7.372;2024-03-08T07:30:13;98794.81;;;3.19;73.75
82160;BME280;71734;50.876;7.372;2024-03-08T07:33:00;98805.06;;;3.39;73.51
82160;BME280;71734;50.876;7.372;2024-03-08T07:35:28;98805.97;;;3.35;73.76
82160;BME280;71734;50.876;7.372;2024-03-08T07:38:23;98798.06;;;3.41;73.71
82160;BME280;71734;50.876;7.372;2024-03-08T07:40:50;98784.94;;;3.44;73.56
82160;BME280;71734;50.876;7.372;2024-03-08T07:43:17;98793.56;;;3.52;73.47
82160;BME280;71734;50.876;7.372;2024-03-08T07:45:44;98785.59;;;3.61;73.27
82160;BME280;71734;50.876;7.372;2024-03-08T07:48:11;98779.41;;;3.65;71.76
82160;BME280;71734;50.876;7.372;2024-03-08T07:50:38;98772.16;;;3.86;72.60
82160;BME280;71734;50.876;7.372;2024-03-08T07:53:05;98775.63;;;3.86;71.55
82160;BME280;71734;50.876;7.372;2024-03-08T07:55:32;98775.41;;;4.00;71.93
82160;BME280;71734;50.876;7.372;2024-03-08T07:58:00;98770.91;;;4.09;70.90
82160;BME280;71734;50.876;7.372;2024-03-08T08:00:29;98765.84;;;3.97;71.08
82160;BME280;71734;50.876;7.372;2024-03-08T08:02:58;98749.94;;;4.08;70.43
82160;BME280;71734;50.876;7.372;2024-03-08T08:05:25;98758.28;;;4.33;70.31
82160;BME280;71734;50.876;7.372;2024-03-08T08:07:52;98771.25;;;4.43;69.86
82160;BME280;71734;50.876;7.372;2024-03-08T08:10:38;98760.50;;;4.58;70.07
82160;BME280;71734;50.876;7.372;2024-03-08T08:13:05;98742.91;;;4.63;70.01
82160;BME280;71734;50.876;7.372;2024-03-08T08:15:33;98747.00;;;4.80;68.38
82160;BME280;71734;50.876;7.372;2024-03-08T08:18:05;98751.38;;;4.79;67.89
82160;BME280;71734;50.876;7.372;2024-03-08T08:20:33;98751.41;;;4.78;68.59
82160;BME280;71734;50.876;7.372;2024-03-08T08:22:59;98733.56;;;4.95;69.07
82160;BME280;71734;50.876;7.372;2024-03-08T08:25:26;98740.00;;;5.23;68.04
82160;BME280;71734;50.876;7.372;2024-03-08T08:27:53;98725.84;;;5.30;67.43
82160;BME280;71734;50.876;7.372;2024-03-08T08:30:19;98726.41;;;5.46;66.55
82160;BME280;71734;50.876;7.372;2024-03-08T08:32:48;98706.19;;;5.49;66.21
82160;BME280;71734;50.876;7.372;2024-03-08T08:35:26;98718.03;;;5.69;65.47
82160;BME280;71734;50.876;7.372;2024-03-08T08:37:54;98707.13;;;5.87;64.85
82160;BME280;71734;50.876;7.372;2024-03-08T08:40:23;98709.00;;;5.79;65.03
82160;BME280;71734;50.876;7.372;2024-03-08T08:42:50;98711.25;;;5.97;64.74
82160;BME280;71734;50.876;7.372;2024-03-08T08:45:22;98704.69;;;5.78;64.99
82160;BME280;71734;50.876;7.372;2024-03-08T08:47:53;98710.16;;;6.07;65.21
82160;BME280;71734;50.876;7.372;2024-03-08T08:50:20;98695.06;;;6.14;63.60
82160;BME280;71734;50.876;7.372;2024-03-08T08:52:49;98702.63;;;6.27;63.29
82160;BME280;71734;50.876;7.372;2024-03-08T08:55:16;98694.13;;;6.16;63.98
82160;BME280;71734;50.876;7.372;2024-03-08T08:57:46;98691.84;;;6.36;63.48
82160;BME280;71734;50.876;7.372;2024-03-08T09:00:13;98682.28;;;6.68;63.03
82160;BME280;71734;50.876;7.372;2024-03-08T09:02:41;98688.00;;;6.83;62.88
82160;BME280;71734;50.876;7.372;2024-03-08T09:05:09;98687.63;;;7.26;59.95
82160;BME280;71734;50.876;7.372;2024-03-08T09:07:36;98686.00;;;7.22;61.39
82160;BME280;71734;50.876;7.372;2024-03-08T09:10:03;98675.81;;;7.10;61.83
82160;BME280;71734;50.876;7.372;2024-03-08T09:12:30;98681.06;;;7.10;61.24
82160;BME280;71734;50.876;7.372;2024-03-08T09:14:58;98672.28;;;7.40;60.86
82160;BME280;71734;50.876;7.372;2024-03-08T09:17:24;98671.19;;;7.47;61.15
82160;BME280;71734;50.876;7.372;2024-03-08T09:19:51;98672.44;;;7.64;58.71
82160;BME280;71734;50.876;7.372;2024-03-08T09:22:21;98659.25;;;7.64;59.87
82160;BME280;71734;50.876;7.372;2024-03-08T09:24:47;98674.16;;;7.92;58.86
82160;BME280;71734;50.876;7.372;2024-03-08T09:27:14;98659.75;;;8.30;59.38
82160;BME280;71734;50.876;7.372;2024-03-08T09:29:41;98672.72;;;8.10;57.06
82160;BME280;71734;50.876;7.372;2024-03-08T09:32:08;98671.69;;;7.88;57.45
82160;BME280;71734;50.876;7.372;2024-03-08T09:34:36;98670.59;;;8.21;57.77
82160;BME280;71734;50.876;7.372;2024-03-08T09:37:03;98668.38;;;8.35;56.39
82160;BME280;71734;50.876;7.372;2024-03-08T09:39:31;98651.91;;;8.01;57.98
82160;BME280;71734;50.876;7.372;2024-03-08T09:41:58;98660.72;;;9.02;56.85
82160;BME280;71734;50.876;7.372;2024-03-08T09:44:26;98653.94;;;9.42;56.28
82160;BME280;71734;50.876;7.372;2024-03-08T09:47:00;98648.03;;;9.80;54.49
82160;BME280;71734;50.876;7.372;2024-03-08T09:49:27;98640.09;;;9.80;53.12
82160;BME280;71734;50.876;7.372;2024-03-08T09:52:00;98647.19;;;9.34;53.41
82160;BME280;71734;50.876;7.372;2024-03-08T09:54:31;98637.47;;;9.12;53.48
82160;BME280;71734;50.876;7.372;2024-03-08T09:56:58;98631.72;;;9.69;52.75
82160;BME280;71734;50.876;7.372;2024-03-08T09:59:25;98626.56;;;10.09;52.36
82160;BME280;71734;50.876;7.372;2024-03-08T10:02:15;98619.00;;;9.33;53.06
82160;BME280;71734;50.876;7.372;2024-03-08T10:04:42;98617.88;;;9.17;52.85
82160;BME280;71734;50.876;7.372;2024-03-08T10:07:11;98611.03;;;9.35;52.87
82160;BME280;71734;50.876;7.372;2024-03-08T10:09:40;98600.72;;;10.36;52.27
82160;BME280;71734;50.876;7.372;2024-03-08T10:12:07;98610.53;;;10.12;51.99
82160;BME280;71734;50.876;7.372;2024-03-08T10:14:39;98599.84;;;10.76;50.72
82160;BME280;71734;50.876;7.372;2024-03-08T10:17:06;98604.03;;;10.61;50.33
82160;BME280;71734;50.876;7.372;2024-03-08T10:19:33;98600.97;;;10.91;50.45
82160;BME280;71734;50.876;7.372;2024-03-08T10:21:59;98589.75;;;10.84;49.38
82160;BME280;71734;50.876;7.372;2024-03-08T10:24:26;98588.56;;;11.10;48.26
82160;BME280;71734;50.876;7.372;2024-03-08T10:26:58;98579.66;;;11.67;47.99
82160;BME280;71734;50.876;7.372;2024-03-08T10:29:28;98581.69;;;10.87;48.19
82160;BME280;71734;50.876;7.372;2024-03-08T10:31:55;98574.13;;;10.78;49.89
82160;BME280;71734;50.876;7.372;2024-03-08T10:34:22;98577.59;;;11.17;48.78
82160;BME280;71734;50.876;7.372;2024-03-08T10:36:50;98572.88;;;11.05;47.56
82160;BME280;71734;50.876;7.372;2024-03-08T10:39:21;98582.38;;;10.32;48.44
82160;BME280;71734;50.876;7.372;2024-03-08T10:41:52;98570.03;;;10.10;50.17
82160;BME280;71734;50.876;7.372;2024-03-08T10:44:40;98582.06;;;11.17;48.77
82160;BME280;71734;50.876;7.372;2024-03-08T10:47:15;98559.34;;;10.72;48.06
82160;BME280;71734;50.876;7.372;2024-03-08T10:49:47;98576.44;;;10.86;47.88
82160;BME280;71734;50.876;7.372;2024-03-08T10:52:16;98568.56;;;10.64;46.57
82160;BME280;71734;50.876;7.372;2024-03-08T10:54:43;98561.09;;;10.92;47.86
82160;BME280;71734;50.876;7.372;2024-03-08T10:57:12;98551.16;;;11.35;46.17
82160;BME280;71734;50.876;7.372;2024-03-08T10:59:40;98570.03;;;11.29;45.54
82160;BME280;71734;50.876;7.372;2024-03-08T11:02:23;98543.19;;;11.35;45.07
82160;BME280;71734;50.876;7.372;2024-03-08T11:04:52;98544.38;;;10.92;44.73
82160;BME280;71734;50.876;7.372;2024-03-08T11:07:21;98550.06;;;10.83;46.85
82160;BME280;71734;50.876;7.372;2024-03-08T11:09:48;98531.88;;;10.94;46.47
82160;BME280;71734;50.876;7.372;2024-03-08T11:12:22;98536.81;;;11.01;46.39
82160;BME280;71734;50.876;7.372;2024-03-08T11:14:53;98520.63;;;11.62;44.34
82160;BME280;71734;50.876;7.372;2024-03-08T11:17:40;98507.91;;;11.87;44.34
82160;BME280;71734;50.876;7.372;2024-03-08T11:20:11;98510.56;;;11.87;43.92
82160;BME280;71734;50.876;7.372;2024-03-08T11:22:42;98524.56;;;11.17;45.17
82160;BME280;71734;50.876;7.372;2024-03-08T11:25:32;98500.25;;;11.81;45.29
82160;BME280;71734;50.876;7.372;2024-03-08T11:28:13;98497.66;;;11.44;45.06
82160;BME280;71734;50.876;7.372;2024-03-08T11:30:45;98504.44;;;11.49;43.93
82160;BME280;71734;50.876;7.372;2024-03-08T11:33:14;98501.44;;;11.93;44.81
82160;BME280;71734;50.876;7.372;2024-03-08T11:35:42;98495.41;;;11.72;44.05
82160;BME280;71734;50.876;7.372;2024-03-08T11:38:11;98494.88;;;11.64;45.89
82160;BME280;71734;50.876;7.372;2024-03-08T11:40:39;98491.66;;;11.76;45.93
82160;BME280;71734;50.876;7.372;2024-03-08T11:43:07;98494.47;;;11.90;43.48
82160;BME280;71734;50.876;7.372;2024-03-08T11:45:34;98483.56;;;12.79;44.44
82160;BME280;71734;50.876;7.372;2024-03-08T11:48:04;98468.56;;;13.41;43.30
82160;BME280;71734;50.876;7.372;2024-03-08T11:50:31;98464.06;;;13.57;42.93
82160;BME280;71734;50.876;7.372;2024-03-08T11:53:02;98469.34;;;13.88;40.87
82160;BME280;71734;50.876;7.372;2024-03-08T11:55:29;98466.22;;;14.40;41.39
82160;BME280;71734;50.876;7.372;2024-03-08T11:58:01;98472.81;;;14.63;39.42
82160;BME280;71734;50.876;7.372;2024-03-08T12:00:28;98460.41;;;14.33;39.06
82160;BME280;71734;50.876;7.372;2024-03-08T12:03:05;98463.09;;;14.04;38.97
82160;BME280;71734;50.876;7.372;2024-03-08T12:05:33;98459.88;;;14.27;40.23
82160;BME280;71734;50.876;7.372;2024-03-08T12:15:18;98440.91;;;14.61;39.72
82160;BME280;71734;50.876;7.372;2024-03-08T12:17:47;98439.72;;;14.23;39.70
82160;BME280;71734;50.876;7.372;2024-03-08T12:20:20;98434.03;;;13.85;40.46
82160;BME280;71734;50.876;7.372;2024-03-08T12:22:51;98432.44;;;13.67;38.88
82160;BME280;71734;50.876;7.372;2024-03-08T12:25:19;98422.94;;;13.92;39.68
82160;BME280;71734;50.876;7.372;2024-03-08T12:28:07;98416.13;;;13.43;39.97
82160;BME280;71734;50.876;7.372;2024-03-08T12:33:11;98432.88;;;12.98;39.63
82160;BME280;71734;50.876;7.372;2024-03-08T12:35:56;98413.13;;;13.02;40.69
82160;BME280;71734;50.876;7.372;2024-03-08T12:38:44;98409.34;;;13.37;41.11
82160;BME280;71734;50.876;7.372;2024-03-08T12:41:30;98414.94;;;13.17;40.13
82160;BME280;71734;50.876;7.372;2024-03-08T12:43:57;98407.47;;;13.08;39.15
82160;BME280;71734;50.876;7.372;2024-03-08T12:46:30;98404.00;;;13.97;41.39
82160;BME280;71734;50.876;7.372;2024-03-08T12:48:58;98397.69;;;13.54;39.94
82160;BME280;71734;50.876;7.372;2024-03-08T12:51:26;98410.91;;;12.79;39.73
82160;BME280;71734;50.876;7.372;2024-03-08T12:54:22;98396.31;;;12.70;40.00
82160;BME280;71734;50.876;7.372;2024-03-08T13:00:16;98381.75;;;12.62;39.90
82160;BME280;71734;50.876;7.372;2024-03-08T13:06:22;98376.75;;;13.78;41.15
82160;BME280;71734;50.876;7.372;2024-03-08T13:12:34;98378.03;;;14.29;39.95
82160;BME280;71734;50.876;7.372;2024-03-08T13:18:39;98378.78;;;13.44;40.15
82160;BME280;71734;50.876;7.372;2024-03-08T13:21:08;98372.13;;;13.06;40.28
82160;BME280;71734;50.876;7.372;2024-03-08T13:30:16;98354.66;;;12.55;42.55
82160;BME280;71734;50.876;7.372;2024-03-08T13:32:44;98348.81;;;12.64;44.33
82160;BME280;71734;50.876;7.372;2024-03-08T13:35:11;98357.19;;;12.41;43.96
82160;BME280;71734;50.876;7.372;2024-03-08T13:37:39;98348.78;;;12.80;44.34
82160;BME280;71734;50.876;7.372;2024-03-08T13:40:07;98340.03;;;12.93;43.35
82160;BME280;71734;50.876;7.372;2024-03-08T13:42:36;98341.25;;;13.03;44.18
82160;BME280;71734;50.876;7.372;2024-03-08T13:45:04;98327.47;;;12.66;44.10
82160;BME280;71734;50.876;7.372;2024-03-08T13:47:33;98331.50;;;12.57;44.04
82160;BME280;71734;50.876;7.372;2024-03-08T13:50:01;98327.78;;;12.59;44.88